Allentown, New York
Current Conditions -  °F | °C
As of 12:33 AM on Tuesday 27 Jan 2015 (Local Time) from KELZ Reporting Station
Light Snow Light Snow  
Wind Chill: -15°   Ceiling: 3100
Heat Index: -11°   Visibility: 6mi
Dew Point: -13°   Wind: 5mph
Humidity: 88%   Direction: 10°N
Pressure: 29.76"   Gusts: NA
Location:  42.08°N, 78.06°W
Report Text: KELZ 270533Z AUTO 01004KT 6SM -SN BR OVC031 M11/M13 A2976 RMK AO2 P0000 T11111128
Loading
Personal Weather Stations






























Interactive Weather Map New forecast layout! Learn more

10-Day Weather Forecast

Advertisements
Track Severe Weather on mobile